createdAt,value
2023-01-01T00:01:27.058Z,92691.19
2023-01-01T00:03:56.387Z,92699.41
2023-01-01T00:06:24.080Z,92690.78
2023-01-01T00:09:13.680Z,92680.16
2023-01-01T00:11:40.526Z,92703.88
2023-01-01T00:14:12.214Z,92682.13
2023-01-01T00:16:39.826Z,92697.59
2023-01-01T00:19:06.558Z,92700.63
2023-01-01T00:21:33.215Z,92700.00
2023-01-01T00:24:00.120Z,92708.28
2023-01-01T00:26:31.026Z,92709.84
2023-01-01T00:29:02.992Z,92706.16
2023-01-01T00:31:29.848Z,92707.88
2023-01-01T00:33:57.624Z,92710.13
2023-01-01T00:36:26.896Z,92706.59
2023-01-01T00:38:54.150Z,92714.13
2023-01-01T00:41:21.401Z,92714.97
2023-01-01T00:43:48.127Z,92711.44
2023-01-01T00:46:15.065Z,92708.41
2023-01-01T00:48:42.351Z,92713.72
2023-01-01T00:51:09.527Z,92716.25
2023-01-01T00:53:36.741Z,92713.22
2023-01-01T00:56:03.709Z,92725.13
2023-01-01T00:58:30.552Z,92728.63
2023-01-01T01:00:57.309Z,92725.03
2023-01-01T01:03:30.658Z,92728.13
2023-01-01T01:06:09.954Z,92725.03
2023-01-01T01:08:38.804Z,92722.72
2023-01-01T01:11:16.997Z,92720.44
2023-01-01T01:13:45.607Z,92720.88
2023-01-01T01:16:17.110Z,92722.22
2023-01-01T01:18:44.722Z,92716.63
2023-01-01T01:21:15.778Z,92711.34
2023-01-01T01:23:42.786Z,92727.00
2023-01-01T01:26:15.781Z,92718.91
2023-01-01T01:28:49.071Z,92725.59
2023-01-01T01:31:17.474Z,92719.44
2023-01-01T01:33:46.178Z,92719.00
2023-01-01T01:36:14.160Z,92709.63
2023-01-01T01:38:41.793Z,92707.91
2023-01-01T01:41:26.070Z,92706.00
2023-01-01T01:44:26.769Z,92698.31
2023-01-01T01:46:53.784Z,92693.69
2023-01-01T01:49:30.924Z,92690.09
2023-01-01T01:52:01.000Z,92687.50
2023-01-01T01:54:29.025Z,92690.34
2023-01-01T01:57:00.869Z,92689.59
2023-01-01T01:59:33.688Z,92684.41
2023-01-01T02:02:01.169Z,92679.47
2023-01-01T02:04:28.528Z,92675.94
2023-01-01T02:06:55.835Z,92674.59
2023-01-01T02:09:22.700Z,92681.00
2023-01-01T02:11:49.538Z,92678.69
2023-01-01T02:14:16.281Z,92670.09
2023-01-01T02:16:51.552Z,92677.13
2023-01-01T02:19:20.863Z,92671.16
2023-01-01T02:22:07.273Z,92674.41
2023-01-01T02:24:55.914Z,92676.19
2023-01-01T02:27:42.272Z,92685.06
2023-01-01T02:30:12.073Z,92684.03
2023-01-01T02:32:46.839Z,92692.56
2023-01-01T02:35:34.850Z,92689.28
2023-01-01T02:38:25.318Z,92696.00
2023-01-01T02:40:58.311Z,92692.44
2023-01-01T02:43:25.333Z,92696.63
2023-01-01T02:45:54.147Z,92695.56
2023-01-01T02:48:40.949Z,92687.34
2023-01-01T02:51:13.403Z,92695.03
2023-01-01T02:53:53.505Z,92702.22
2023-01-01T02:56:39.216Z,92687.81
2023-01-01T02:59:45.065Z,92699.66
2023-01-01T03:02:31.316Z,92690.31
2023-01-01T03:05:17.115Z,92700.66
2023-01-01T03:08:11.106Z,92694.44
2023-01-01T03:10:46.357Z,92700.84
2023-01-01T03:13:32.391Z,92709.16
2023-01-01T03:16:09.991Z,92699.59
2023-01-01T03:19:12.159Z,92700.63
2023-01-01T03:21:51.398Z,92707.88
2023-01-01T03:24:27.395Z,92702.66
2023-01-01T03:26:58.351Z,92708.19
2023-01-01T03:29:27.950Z,92694.75
2023-01-01T03:32:07.285Z,92701.72
2023-01-01T03:34:42.555Z,92699.72
2023-01-01T03:37:13.995Z,92697.13
2023-01-01T03:39:47.519Z,92705.19
2023-01-01T03:42:38.481Z,92701.34
2023-01-01T03:45:22.220Z,92706.50
2023-01-01T03:47:50.349Z,92715.25
2023-01-01T03:50:17.955Z,92708.50
2023-01-01T03:52:44.697Z,92712.06
2023-01-01T03:55:36.550Z,92711.31
2023-01-01T03:58:24.213Z,92711.13
2023-01-01T04:01:05.203Z,92716.00
2023-01-01T04:03:34.597Z,92711.63
2023-01-01T04:06:03.660Z,92715.25
2023-01-01T04:08:33.798Z,92715.50
2023-01-01T04:11:23.971Z,92714.94
2023-01-01T04:13:50.742Z,92726.34
2023-01-01T04:16:17.477Z,92717.34
2023-01-01T04:18:44.156Z,92727.38
2023-01-01T04:21:12.175Z,92721.72
2023-01-01T04:23:38.864Z,92721.47
2023-01-01T04:26:05.670Z,92727.97
2023-01-01T04:28:32.285Z,92728.28
2023-01-01T04:31:02.877Z,92716.91
2023-01-01T04:33:29.612Z,92729.78
2023-01-01T04:35:56.252Z,92728.22
2023-01-01T04:38:22.992Z,92727.66
2023-01-01T04:41:01.433Z,92732.94
2023-01-01T04:43:29.574Z,92730.56
2023-01-01T04:46:03.838Z,92727.97
2023-01-01T04:48:32.050Z,92723.81
2023-01-01T04:51:01.801Z,92723.81
2023-01-01T04:53:33.886Z,92725.63
2023-01-01T04:56:08.832Z,92717.91
2023-01-01T04:58:37.186Z,92725.81
2023-01-01T05:01:05.202Z,92725.78
2023-01-01T05:03:32.099Z,92728.31
2023-01-01T05:06:10.138Z,92730.38
2023-01-01T05:08:39.207Z,92729.31
2023-01-01T05:11:07.460Z,92735.72
2023-01-01T05:13:35.926Z,92733.94
2023-01-01T05:16:05.075Z,92723.38
2023-01-01T05:18:32.225Z,92725.22
2023-01-01T05:21:08.542Z,92736.31
2023-01-01T05:23:35.635Z,92735.50
2023-01-01T05:26:19.917Z,92738.06
2023-01-01T05:28:47.795Z,92737.56
2023-01-01T05:31:17.269Z,92736.56
2023-01-01T05:33:44.190Z,92746.88
2023-01-01T05:36:25.197Z,92744.09
2023-01-01T05:38:52.693Z,92750.72
2023-01-01T05:41:20.603Z,92744.81
2023-01-01T05:43:48.019Z,92745.84
2023-01-01T05:46:20.720Z,92733.47
2023-01-01T05:48:48.809Z,92746.69
2023-01-01T05:51:24.061Z,92757.75
2023-01-01T05:53:51.881Z,92755.94
2023-01-01T05:56:19.078Z,92760.34
2023-01-01T05:58:46.896Z,92751.06
2023-01-01T06:01:28.713Z,92753.13
2023-01-01T06:03:57.339Z,92758.78
2023-01-01T06:06:28.928Z,92748.41
2023-01-01T06:09:01.395Z,92754.66
2023-01-01T06:11:29.203Z,92752.06
2023-01-01T06:14:00.030Z,92758.97
2023-01-01T06:16:28.560Z,92759.97
2023-01-01T06:18:55.208Z,92758.16
2023-01-01T06:21:24.933Z,92756.00
2023-01-01T06:23:51.988Z,92759.09
2023-01-01T06:26:22.517Z,92759.06
2023-01-01T06:28:50.163Z,92753.16
2023-01-01T06:31:21.414Z,92758.34
2023-01-01T06:33:48.942Z,92760.41
2023-01-01T06:36:17.460Z,92762.94
2023-01-01T06:38:47.951Z,92770.44
2023-01-01T06:41:17.267Z,92767.44
2023-01-01T06:43:45.075Z,92762.94
2023-01-01T06:46:17.040Z,92763.88
2023-01-01T06:48:45.036Z,92771.19
2023-01-01T06:51:15.111Z,92769.50
2023-01-01T06:53:42.001Z,92772.63
2023-01-01T06:56:09.111Z,92766.53
2023-01-01T06:58:36.132Z,92762.84
2023-01-01T07:01:08.876Z,92768.44
2023-01-01T07:03:36.750Z,92774.06
2023-01-01T07:06:03.857Z,92770.81
2023-01-01T07:08:30.649Z,92760.69
2023-01-01T07:10:58.025Z,92765.69
2023-01-01T07:13:26.319Z,92759.31
2023-01-01T07:15:53.831Z,92760.34
2023-01-01T07:18:22.131Z,92751.63
2023-01-01T07:20:57.725Z,92758.13
2023-01-01T07:23:25.563Z,92750.88
2023-01-01T07:25:53.514Z,92757.16
2023-01-01T07:28:21.405Z,92752.94
2023-01-01T07:30:49.264Z,92766.59
2023-01-01T07:33:18.461Z,92762.38
2023-01-01T07:35:45.953Z,92769.69
2023-01-01T07:38:13.981Z,92755.06
2023-01-01T07:40:41.471Z,92753.72
2023-01-01T07:43:09.121Z,92752.63
2023-01-01T07:45:36.050Z,92759.16
2023-01-01T07:48:02.771Z,92757.63
2023-01-01T07:50:31.752Z,92757.13
2023-01-01T07:52:59.684Z,92761.81
2023-01-01T07:55:27.309Z,92758.16
2023-01-01T07:57:54.065Z,92758.97
2023-01-01T08:00:22.237Z,92754.69
2023-01-01T08:02:49.559Z,92740.53
2023-01-01T08:05:21.158Z,92753.94
2023-01-01T08:07:51.980Z,92744.81
2023-01-01T08:10:22.388Z,92753.78
2023-01-01T08:12:49.130Z,92758.22
2023-01-01T08:15:16.356Z,92743.91
2023-01-01T08:17:47.041Z,92743.59
2023-01-01T08:20:14.638Z,92747.88
2023-01-01T08:22:41.480Z,92745.09
2023-01-01T08:25:08.831Z,92750.75
2023-01-01T08:27:35.655Z,92722.19
2023-01-01T08:30:02.506Z,92750.47
2023-01-01T08:32:29.104Z,92750.19
2023-01-01T08:34:55.723Z,92743.84
2023-01-01T08:37:23.434Z,92753.34
2023-01-01T08:39:51.263Z,92746.03
2023-01-01T08:42:18.433Z,92740.91
2023-01-01T08:44:45.283Z,92740.75
2023-01-01T08:47:23.719Z,92736.78
2023-01-01T08:49:50.772Z,92738.00
2023-01-01T08:52:18.115Z,92714.75
2023-01-01T08:54:45.180Z,92741.69
2023-01-01T08:57:12.441Z,92731.47
2023-01-01T08:59:39.250Z,92724.63
2023-01-01T09:02:06.884Z,92726.22
2023-01-01T09:04:34.625Z,92724.75
2023-01-01T09:07:01.509Z,92722.81
2023-01-01T09:09:31.619Z,92727.09
2023-01-01T09:12:04.230Z,92720.44
2023-01-01T09:14:31.275Z,92718.97
2023-01-01T09:16:58.035Z,92714.38
2023-01-01T09:19:24.675Z,92708.22
2023-01-01T09:21:52.130Z,92706.75
2023-01-01T09:24:18.791Z,92703.06
2023-01-01T09:26:46.162Z,92694.28
2023-01-01T09:29:12.919Z,92692.75
2023-01-01T09:31:39.589Z,92691.50
2023-01-01T09:34:06.299Z,92695.44
2023-01-01T09:36:33.775Z,92688.06
2023-01-01T09:39:01.328Z,92692.50
2023-01-01T09:41:37.035Z,92688.41
2023-01-01T09:44:17.876Z,92692.31
2023-01-01T09:46:44.905Z,92694.59
2023-01-01T09:49:40.036Z,92690.53
2023-01-01T09:52:07.329Z,92688.53
2023-01-01T09:54:34.100Z,92684.78
2023-01-01T09:57:04.167Z,92679.88
2023-01-01T09:59:31.208Z,92660.56
2023-01-01T10:02:23.468Z,92674.59
2023-01-01T10:05:14.849Z,92679.50
2023-01-01T10:07:50.725Z,92669.63
2023-01-01T10:10:34.251Z,92672.59
2023-01-01T10:13:19.666Z,92668.91
2023-01-01T10:15:58.493Z,92666.63
2023-01-01T10:18:33.493Z,92659.75
2023-01-01T10:21:12.587Z,92649.94
2023-01-01T10:23:48.490Z,92649.16
2023-01-01T10:26:21.672Z,92647.28
2023-01-01T10:29:13.149Z,92642.78
2023-01-01T10:31:44.940Z,92641.91
2023-01-01T10:34:22.457Z,92633.88
2023-01-01T10:36:53.928Z,92631.41
2023-01-01T10:39:21.046Z,92628.19
2023-01-01T10:41:48.329Z,92630.03
2023-01-01T10:44:44.988Z,92623.63
2023-01-01T10:47:23.851Z,92616.47
2023-01-01T10:50:07.833Z,92618.47
2023-01-01T10:52:37.617Z,92621.47
2023-01-01T10:55:06.583Z,92604.91
2023-01-01T10:57:40.621Z,92612.88
2023-01-01T11:00:10.275Z,92601.13
2023-01-01T11:02:37.447Z,92598.94
2023-01-01T11:05:22.386Z,92595.94
2023-01-01T11:07:50.239Z,92603.72
2023-01-01T11:10:21.148Z,92602.69
2023-01-01T11:13:06.339Z,92599.84
2023-01-01T11:15:42.718Z,92597.97
2023-01-01T11:18:36.289Z,92604.03
2023-01-01T11:21:05.790Z,92598.91
2023-01-01T11:23:37.956Z,92595.09
2023-01-01T11:26:07.397Z,92602.47
2023-01-01T11:28:35.595Z,92595.84
2023-01-01T11:31:04.739Z,92596.59
2023-01-01T11:33:34.881Z,92599.91
2023-01-01T11:36:02.191Z,92594.69
2023-01-01T11:38:30.417Z,92589.09
2023-01-01T11:41:04.786Z,92581.75
2023-01-01T11:43:40.434Z,92581.22
2023-01-01T11:46:11.057Z,92579.63
2023-01-01T11:48:43.132Z,92591.84
2023-01-01T11:51:12.024Z,92568.09
2023-01-01T11:53:43.920Z,92583.16
2023-01-01T11:56:20.818Z,92577.56
2023-01-01T11:58:53.996Z,92576.75
2023-01-01T12:01:45.826Z,92578.16
2023-01-01T12:04:40.401Z,92586.78
2023-01-01T12:07:11.015Z,92579.25
2023-01-01T12:09:47.473Z,92577.72
2023-01-01T12:12:35.862Z,92584.94
2023-01-01T12:15:20.369Z,92569.56
2023-01-01T12:17:57.284Z,92579.31
2023-01-01T12:20:32.325Z,92569.69
2023-01-01T12:23:00.291Z,92570.00
2023-01-01T12:25:36.381Z,92560.38
2023-01-01T12:28:15.034Z,92561.75
2023-01-01T12:31:00.569Z,92555.75
2023-01-01T12:33:41.645Z,92547.84
2023-01-01T12:36:08.364Z,92545.03
2023-01-01T12:39:12.950Z,92542.03
2023-01-01T12:42:32.482Z,92547.34
2023-01-01T12:45:31.502Z,92553.03
2023-01-01T12:48:06.582Z,92550.66
2023-01-01T12:50:51.437Z,92560.22
2023-01-01T12:53:46.847Z,92555.22
2023-01-01T12:56:25.762Z,92557.09
2023-01-01T12:59:01.964Z,92560.91
2023-01-01T13:01:33.975Z,92557.25
2023-01-01T13:04:05.610Z,92557.31
2023-01-01T13:06:50.101Z,92559.84
2023-01-01T13:09:24.147Z,92555.75
2023-01-01T13:12:10.472Z,92531.09
2023-01-01T13:14:43.183Z,92549.34
2023-01-01T13:17:20.458Z,92561.16
2023-01-01T13:19:49.286Z,92551.91
2023-01-01T13:22:42.323Z,92560.34
2023-01-01T13:25:08.969Z,92560.38
2023-01-01T13:27:58.319Z,92562.69
2023-01-01T13:30:37.484Z,92561.94
2023-01-01T13:33:33.317Z,92563.47
2023-01-01T13:36:09.209Z,92571.06
2023-01-01T13:38:52.561Z,92564.59
2023-01-01T13:41:41.349Z,92567.84
2023-01-01T13:44:08.211Z,92570.06
2023-01-01T13:46:44.312Z,92568.94
2023-01-01T13:49:32.438Z,92575.59
2023-01-01T13:52:05.705Z,92577.59
2023-01-01T13:55:09.829Z,92581.03
2023-01-01T13:57:42.418Z,92575.66
2023-01-01T14:00:23.266Z,92581.38
2023-01-01T14:02:59.514Z,92587.22
2023-01-01T14:05:41.912Z,92581.63
2023-01-01T14:08:28.640Z,92575.44
2023-01-01T14:10:55.785Z,92590.56
2023-01-01T14:13:29.748Z,92594.34
2023-01-01T14:16:10.964Z,92598.19
2023-01-01T14:18:47.964Z,92597.75
2023-01-01T14:21:18.100Z,92595.41
2023-01-01T14:24:06.517Z,92606.50
2023-01-01T14:26:37.208Z,92598.41
2023-01-01T14:29:08.156Z,92605.97
2023-01-01T14:31:45.627Z,92616.25
2023-01-01T14:34:26.331Z,92614.66
2023-01-01T14:36:55.535Z,92617.88
2023-01-01T14:39:29.962Z,92619.78
2023-01-01T14:42:01.147Z,92622.19
2023-01-01T14:44:34.868Z,92621.22
2023-01-01T14:47:02.111Z,92627.97
2023-01-01T14:49:33.547Z,92634.03
2023-01-01T14:52:09.038Z,92625.00
2023-01-01T14:54:43.589Z,92635.34
2023-01-01T14:57:20.760Z,92636.34
2023-01-01T14:59:49.408Z,92608.91
2023-01-01T15:02:21.267Z,92630.31
2023-01-01T15:04:48.872Z,92635.53
2023-01-01T15:07:27.348Z,92632.53
2023-01-01T15:09:56.478Z,92638.00
2023-01-01T15:12:24.106Z,92637.78
2023-01-01T15:14:53.378Z,92640.81
2023-01-01T15:17:25.615Z,92637.22
2023-01-01T15:20:22.603Z,92635.25
2023-01-01T15:22:51.755Z,92645.56
2023-01-01T15:25:19.812Z,92638.41
2023-01-01T15:27:51.794Z,92644.47
2023-01-01T15:30:31.789Z,92654.03
2023-01-01T15:33:07.811Z,92653.03
2023-01-01T15:35:37.871Z,92651.91
2023-01-01T15:38:34.435Z,92654.09
2023-01-01T15:41:01.559Z,92656.41
2023-01-01T15:43:30.919Z,92658.97
2023-01-01T15:46:17.379Z,92662.13
2023-01-01T15:48:52.255Z,92662.13
2023-01-01T15:51:22.226Z,92671.59
2023-01-01T15:53:54.551Z,92672.69
2023-01-01T15:56:25.621Z,92676.72
2023-01-01T15:59:16.782Z,92670.56
2023-01-01T16:01:44.502Z,92671.19
2023-01-01T16:04:24.011Z,92673.53
2023-01-01T16:06:57.089Z,92669.34
2023-01-01T16:09:23.859Z,92674.44
2023-01-01T16:11:55.825Z,92679.66
2023-01-01T16:14:23.646Z,92678.41
2023-01-01T16:16:57.613Z,92683.03
2023-01-01T16:19:25.235Z,92664.66
2023-01-01T16:21:51.971Z,92678.13
2023-01-01T16:24:20.359Z,92686.38
2023-01-01T16:26:48.141Z,92676.75
2023-01-01T16:29:15.276Z,92678.75
2023-01-01T16:31:43.069Z,92687.03
2023-01-01T16:34:16.219Z,92697.50
2023-01-01T16:36:44.088Z,92691.97
2023-01-01T16:39:11.438Z,92674.78
2023-01-01T16:41:42.022Z,92697.34
2023-01-01T16:44:14.824Z,92699.94
2023-01-01T16:46:42.249Z,92692.56
2023-01-01T16:49:11.543Z,92703.13
2023-01-01T16:51:43.217Z,92710.19
2023-01-01T16:54:10.514Z,92703.59
2023-01-01T16:56:37.538Z,92708.47
2023-01-01T16:59:04.330Z,92708.91
2023-01-01T17:01:31.469Z,92714.28
2023-01-01T17:03:58.300Z,92711.66
2023-01-01T17:06:25.033Z,92707.81
2023-01-01T17:08:51.813Z,92719.59
2023-01-01T17:11:19.090Z,92714.56
2023-01-01T17:13:47.546Z,92715.00
2023-01-01T17:16:21.173Z,92721.41
2023-01-01T17:21:39.961Z,92724.25
2023-01-01T17:24:07.237Z,92717.53
2023-01-01T17:26:34.234Z,92728.22
2023-01-01T17:29:01.281Z,92725.44
2023-01-01T17:31:29.311Z,92728.78
2023-01-01T17:33:56.889Z,92732.00
2023-01-01T17:36:24.401Z,92731.34
2023-01-01T17:38:51.071Z,92734.84
2023-01-01T17:41:18.260Z,92737.16
2023-01-01T17:43:48.310Z,92734.25
2023-01-01T17:46:20.476Z,92730.97
2023-01-01T17:48:48.125Z,92731.66
2023-01-01T17:51:17.143Z,92732.84
2023-01-01T17:53:44.092Z,92735.59
2023-01-01T17:56:14.710Z,92724.34
2023-01-01T17:58:43.849Z,92730.38
2023-01-01T18:01:10.667Z,92730.94
2023-01-01T18:03:38.830Z,92734.50
2023-01-01T18:06:06.442Z,92738.03
2023-01-01T18:08:33.326Z,92731.66
2023-01-01T18:11:00.392Z,92738.22
2023-01-01T18:13:27.509Z,92739.91
2023-01-01T18:15:54.532Z,92734.09
2023-01-01T18:18:21.404Z,92734.03
2023-01-01T18:20:48.829Z,92729.06
2023-01-01T18:23:15.538Z,92678.81
2023-01-01T18:25:42.361Z,92739.41
2023-01-01T18:28:10.574Z,92731.44
2023-01-01T18:30:37.319Z,92735.94
2023-01-01T18:33:04.453Z,92734.69
2023-01-01T18:35:31.227Z,92707.31
2023-01-01T18:37:57.919Z,92730.75
2023-01-01T18:40:24.896Z,92737.41
2023-01-01T18:43:03.648Z,92728.75
2023-01-01T18:45:30.655Z,92725.75
2023-01-01T18:47:57.367Z,92715.53
2023-01-01T18:50:29.816Z,92728.25
2023-01-01T18:53:07.111Z,92720.94
2023-01-01T18:55:33.843Z,92712.88
2023-01-01T18:58:14.730Z,92724.53
2023-01-01T19:00:41.825Z,92723.97
2023-01-01T19:03:22.978Z,92716.47
2023-01-01T19:05:49.683Z,92711.47
2023-01-01T19:08:18.581Z,92722.16
2023-01-01T19:10:48.697Z,92723.13
2023-01-01T19:13:23.458Z,92721.56
2023-01-01T19:15:54.430Z,92714.84
2023-01-01T19:18:24.864Z,92725.63
2023-01-01T19:21:01.161Z,92720.06
2023-01-01T19:23:29.455Z,92719.66
2023-01-01T19:26:02.463Z,92717.56
2023-01-01T19:28:34.174Z,92714.97
2023-01-01T19:31:02.041Z,92718.13
2023-01-01T19:33:29.408Z,92716.19
2023-01-01T19:35:57.489Z,92725.44
2023-01-01T19:38:24.460Z,92725.63
2023-01-01T19:40:51.188Z,92729.09
2023-01-01T19:43:17.958Z,92722.47
2023-01-01T19:45:44.653Z,92719.69
2023-01-01T19:48:11.760Z,92726.41
2023-01-01T19:50:38.417Z,92723.22
2023-01-01T19:53:05.103Z,92722.28
2023-01-01T19:55:31.997Z,92726.41
2023-01-01T19:57:58.759Z,92723.09
2023-01-01T20:00:28.432Z,92725.69
2023-01-01T20:02:56.065Z,92722.72
2023-01-01T20:05:23.681Z,92688.75
2023-01-01T20:07:51.279Z,92728.00
2023-01-01T20:10:18.072Z,92729.28
2023-01-01T20:12:45.686Z,92729.53
2023-01-01T20:15:15.597Z,92731.94
2023-01-01T20:17:42.653Z,92731.00
2023-01-01T20:20:19.126Z,92738.91
2023-01-01T20:22:45.778Z,92734.41
2023-01-01T20:25:12.650Z,92731.53
2023-01-01T20:27:59.342Z,92739.00
2023-01-01T20:30:26.015Z,92734.78
2023-01-01T20:32:52.808Z,92733.31
2023-01-01T20:35:39.437Z,92733.22
2023-01-01T20:38:06.358Z,92742.28
2023-01-01T20:40:33.195Z,92737.09
2023-01-01T20:43:00.009Z,92741.50
2023-01-01T20:45:26.677Z,92732.69
2023-01-01T20:47:53.395Z,92735.06
2023-01-01T20:50:20.089Z,92737.16
2023-01-01T20:52:46.820Z,92736.75
2023-01-01T20:55:13.528Z,92739.75
2023-01-01T20:57:40.127Z,92731.50
2023-01-01T21:00:08.206Z,92736.19
2023-01-01T21:02:36.480Z,92735.16
2023-01-01T21:05:04.794Z,92726.78
2023-01-01T21:07:31.469Z,92733.50
2023-01-01T21:09:58.137Z,92733.09
2023-01-01T21:12:24.865Z,92737.53
2023-01-01T21:14:51.850Z,92735.50
2023-01-01T21:17:24.183Z,92746.16
2023-01-01T21:19:54.153Z,92742.31
2023-01-01T21:22:21.057Z,92738.53
2023-01-01T21:24:53.569Z,92743.38
2023-01-01T21:27:34.135Z,92736.56
2023-01-01T21:30:01.596Z,92740.34
2023-01-01T21:32:39.338Z,92738.97
2023-01-01T21:35:37.842Z,92737.22
2023-01-01T21:38:21.866Z,92739.66
2023-01-01T21:40:59.556Z,92742.63
2023-01-01T21:43:32.607Z,92744.34
2023-01-01T21:46:12.313Z,92738.22
2023-01-01T21:48:58.468Z,92745.97
2023-01-01T21:51:32.375Z,92738.53
2023-01-01T21:54:06.949Z,92738.22
2023-01-01T21:56:37.080Z,92741.13
2023-01-01T21:59:26.155Z,92738.56
2023-01-01T22:02:21.388Z,92731.72
2023-01-01T22:04:50.612Z,92733.38
2023-01-01T22:07:57.713Z,92730.50
2023-01-01T22:10:24.080Z,92729.44
2023-01-01T22:12:56.515Z,92727.50
2023-01-01T22:15:26.242Z,92722.81
2023-01-01T22:18:18.868Z,92727.78
2023-01-01T22:20:47.026Z,92725.88
2023-01-01T22:23:19.600Z,92721.16
2023-01-01T22:25:47.606Z,92727.91
2023-01-01T22:28:30.577Z,92724.81
2023-01-01T22:30:59.670Z,92712.72
2023-01-01T22:33:37.068Z,92719.06
2023-01-01T22:36:30.973Z,92723.72
2023-01-01T22:39:13.765Z,92708.78
2023-01-01T22:41:42.144Z,92716.78
2023-01-01T22:44:11.353Z,92711.50
2023-01-01T22:46:40.881Z,92711.03
2023-01-01T22:49:29.162Z,92718.00
2023-01-01T22:52:02.193Z,92709.13
2023-01-01T22:54:28.994Z,92718.94
2023-01-01T22:56:55.747Z,92703.66
2023-01-01T22:59:22.881Z,92694.63
2023-01-01T23:01:49.547Z,92703.94
2023-01-01T23:04:16.387Z,92695.25
2023-01-01T23:06:43.208Z,92703.53
2023-01-01T23:09:11.336Z,92707.63
2023-01-01T23:11:38.703Z,92710.22
2023-01-01T23:14:24.333Z,92703.16
2023-01-01T23:16:51.086Z,92696.59
2023-01-01T23:19:18.046Z,92698.78
2023-01-01T23:21:45.324Z,92696.59
2023-01-01T23:24:17.182Z,92697.34
2023-01-01T23:26:44.871Z,92695.06
2023-01-01T23:29:13.017Z,92692.47
2023-01-01T23:31:41.424Z,92688.28
2023-01-01T23:34:08.710Z,92690.00
2023-01-01T23:36:35.957Z,92690.88
2023-01-01T23:39:02.777Z,92696.22
2023-01-01T23:41:29.575Z,92691.03
2023-01-01T23:43:56.612Z,92688.59
2023-01-01T23:46:23.593Z,92685.78
2023-01-01T23:48:50.640Z,92689.84
2023-01-01T23:51:18.069Z,92683.34
2023-01-01T23:53:45.281Z,92682.38
2023-01-01T23:56:12.633Z,92674.72
2023-01-01T23:58:39.447Z,92687.06
